sensor_id;sensor_type;location;lat;lon;timestamp;P1;durP1;ratioP1;P2;durP2;ratioP2
55784;SDS011;41709;52.536;5.688;2022-07-25T00:02:24;1.92;;;1.75;;
55784;SDS011;41709;52.536;5.688;2022-07-25T00:04:50;5.97;;;2.03;;
55784;SDS011;41709;52.536;5.688;2022-07-25T00:07:15;2.25;;;2.05;;
55784;SDS011;41709;52.536;5.688;2022-07-25T00:09:41;3.83;;;2.65;;
55784;SDS011;41709;52.536;5.688;2022-07-25T00:12:06;2.38;;;2.08;;
55784;SDS011;41709;52.536;5.688;2022-07-25T00:14:32;2.20;;;2.00;;
55784;SDS011;41709;52.536;5.688;2022-07-25T00:16:58;2.47;;;2.28;;
55784;SDS011;41709;52.536;5.688;2022-07-25T00:19:23;2.35;;;2.15;;
55784;SDS011;41709;52.536;5.688;2022-07-25T00:21:49;2.50;;;2.22;;
55784;SDS011;41709;52.536;5.688;2022-07-25T00:24:15;2.75;;;2.38;;
55784;SDS011;41709;52.536;5.688;2022-07-25T00:26:41;2.50;;;2.30;;
55784;SDS011;41709;52.536;5.688;2022-07-25T00:29:06;2.80;;;2.60;;
55784;SDS011;41709;52.536;5.688;2022-07-25T00:31:32;3.72;;;3.15;;
55784;SDS011;41709;52.536;5.688;2022-07-25T00:33:57;2.50;;;2.13;;
55784;SDS011;41709;52.536;5.688;2022-07-25T00:36:23;4.43;;;2.40;;
55784;SDS011;41709;52.536;5.688;2022-07-25T00:38:48;2.80;;;2.60;;
55784;SDS011;41709;52.536;5.688;2022-07-25T00:41:14;2.88;;;2.20;;
55784;SDS011;41709;52.536;5.688;2022-07-25T00:43:43;2.55;;;2.35;;
55784;SDS011;41709;52.536;5.688;2022-07-25T00:46:13;4.18;;;2.00;;
55784;SDS011;41709;52.536;5.688;2022-07-25T00:48:40;4.25;;;2.35;;
55784;SDS011;41709;52.536;5.688;2022-07-25T00:51:06;2.80;;;2.50;;
55784;SDS011;41709;52.536;5.688;2022-07-25T00:53:32;3.33;;;2.53;;
55784;SDS011;41709;52.536;5.688;2022-07-25T00:55:59;2.88;;;2.38;;
55784;SDS011;41709;52.536;5.688;2022-07-25T00:58:24;3.15;;;2.15;;
55784;SDS011;41709;52.536;5.688;2022-07-25T01:00:50;2.83;;;2.17;;
55784;SDS011;41709;52.536;5.688;2022-07-25T01:03:15;4.05;;;2.85;;
55784;SDS011;41709;52.536;5.688;2022-07-25T01:05:41;4.15;;;2.55;;
55784;SDS011;41709;52.536;5.688;2022-07-25T01:08:07;2.90;;;2.60;;
55784;SDS011;41709;52.536;5.688;2022-07-25T01:10:33;3.00;;;2.67;;
55784;SDS011;41709;52.536;5.688;2022-07-25T01:12:59;4.13;;;2.50;;
55784;SDS011;41709;52.536;5.688;2022-07-25T01:15:26;3.33;;;3.03;;
55784;SDS011;41709;52.536;5.688;2022-07-25T01:17:51;5.53;;;3.30;;
55784;SDS011;41709;52.536;5.688;2022-07-25T01:20:17;3.10;;;2.60;;
55784;SDS011;41709;52.536;5.688;2022-07-25T01:22:45;3.50;;;2.88;;
55784;SDS011;41709;52.536;5.688;2022-07-25T01:25:11;3.92;;;3.53;;
55784;SDS011;41709;52.536;5.688;2022-07-25T01:27:38;3.65;;;3.35;;
55784;SDS011;41709;52.536;5.688;2022-07-25T01:30:05;3.92;;;3.63;;
55784;SDS011;41709;52.536;5.688;2022-07-25T01:32:32;6.38;;;3.72;;
55784;SDS011;41709;52.536;5.688;2022-07-25T01:34:58;5.63;;;4.05;;
55784;SDS011;41709;52.536;5.688;2022-07-25T01:37:24;4.45;;;4.03;;
55784;SDS011;41709;52.536;5.688;2022-07-25T01:39:50;5.35;;;3.78;;
55784;SDS011;41709;52.536;5.688;2022-07-25T01:42:15;4.10;;;3.53;;
55784;SDS011;41709;52.536;5.688;2022-07-25T01:44:41;3.90;;;3.25;;
55784;SDS011;41709;52.536;5.688;2022-07-25T01:47:06;7.68;;;3.85;;
55784;SDS011;41709;52.536;5.688;2022-07-25T01:49:32;4.43;;;3.50;;
55784;SDS011;41709;52.536;5.688;2022-07-25T01:51:57;4.65;;;4.20;;
55784;SDS011;41709;52.536;5.688;2022-07-25T01:54:23;4.22;;;3.17;;
55784;SDS011;41709;52.536;5.688;2022-07-25T01:56:48;4.28;;;3.42;;
55784;SDS011;41709;52.536;5.688;2022-07-25T01:59:15;3.80;;;3.40;;
55784;SDS011;41709;52.536;5.688;2022-07-25T02:01:41;4.80;;;3.70;;
55784;SDS011;41709;52.536;5.688;2022-07-25T02:04:07;3.88;;;3.58;;
55784;SDS011;41709;52.536;5.688;2022-07-25T02:06:32;4.82;;;3.78;;
55784;SDS011;41709;52.536;5.688;2022-07-25T02:09:01;4.78;;;3.80;;
55784;SDS011;41709;52.536;5.688;2022-07-25T02:11:27;8.70;;;4.03;;
55784;SDS011;41709;52.536;5.688;2022-07-25T02:13:53;4.18;;;3.78;;
55784;SDS011;41709;52.536;5.688;2022-07-25T02:16:18;4.10;;;3.70;;
55784;SDS011;41709;52.536;5.688;2022-07-25T02:18:44;6.28;;;3.65;;
55784;SDS011;41709;52.536;5.688;2022-07-25T02:21:10;5.65;;;4.03;;
55784;SDS011;41709;52.536;5.688;2022-07-25T02:23:35;4.40;;;3.70;;
55784;SDS011;41709;52.536;5.688;2022-07-25T02:26:02;4.72;;;3.50;;
55784;SDS011;41709;52.536;5.688;2022-07-25T02:28:28;3.58;;;3.08;;
55784;SDS011;41709;52.536;5.688;2022-07-25T02:30:54;5.28;;;3.33;;
55784;SDS011;41709;52.536;5.688;2022-07-25T02:33:20;3.85;;;3.47;;
55784;SDS011;41709;52.536;5.688;2022-07-25T02:35:45;4.57;;;3.30;;
55784;SDS011;41709;52.536;5.688;2022-07-25T02:38:11;5.18;;;3.55;;
55784;SDS011;41709;52.536;5.688;2022-07-25T02:40:43;3.53;;;3.22;;
55784;SDS011;41709;52.536;5.688;2022-07-25T02:43:11;3.70;;;3.40;;
55784;SDS011;41709;52.536;5.688;2022-07-25T02:45:37;4.47;;;3.42;;
55784;SDS011;41709;52.536;5.688;2022-07-25T02:48:02;4.88;;;3.10;;
55784;SDS011;41709;52.536;5.688;2022-07-25T02:50:28;3.78;;;3.03;;
55784;SDS011;41709;52.536;5.688;2022-07-25T02:52:54;4.22;;;3.83;;
55784;SDS011;41709;52.536;5.688;2022-07-25T02:55:19;3.85;;;3.30;;
55784;SDS011;41709;52.536;5.688;2022-07-25T02:57:45;5.90;;;3.45;;
55784;SDS011;41709;52.536;5.688;2022-07-25T03:00:11;4.45;;;3.67;;
55784;SDS011;41709;52.536;5.688;2022-07-25T03:02:37;5.60;;;4.15;;
55784;SDS011;41709;52.536;5.688;2022-07-25T03:05:07;4.05;;;3.22;;
55784;SDS011;41709;52.536;5.688;2022-07-25T03:07:33;7.03;;;3.67;;
55784;SDS011;41709;52.536;5.688;2022-07-25T03:09:59;9.75;;;3.83;;
55784;SDS011;41709;52.536;5.688;2022-07-25T03:12:25;4.65;;;4.07;;
55784;SDS011;41709;52.536;5.688;2022-07-25T03:14:50;6.28;;;4.53;;
55784;SDS011;41709;52.536;5.688;2022-07-25T03:17:16;4.78;;;4.35;;
55784;SDS011;41709;52.536;5.688;2022-07-25T03:19:42;5.53;;;4.53;;
55784;SDS011;41709;52.536;5.688;2022-07-25T03:22:07;6.53;;;5.03;;
55784;SDS011;41709;52.536;5.688;2022-07-25T03:24:33;6.05;;;4.95;;
55784;SDS011;41709;52.536;5.688;2022-07-25T03:26:58;8.52;;;5.30;;
55784;SDS011;41709;52.536;5.688;2022-07-25T03:29:25;6.57;;;5.60;;
55784;SDS011;41709;52.536;5.688;2022-07-25T03:31:50;9.43;;;5.18;;
55784;SDS011;41709;52.536;5.688;2022-07-25T03:34:16;6.40;;;5.28;;
55784;SDS011;41709;52.536;5.688;2022-07-25T03:36:41;8.15;;;5.32;;
55784;SDS011;41709;52.536;5.688;2022-07-25T03:39:07;5.57;;;4.90;;
55784;SDS011;41709;52.536;5.688;2022-07-25T03:41:32;5.72;;;5.15;;
55784;SDS011;41709;52.536;5.688;2022-07-25T03:43:58;5.72;;;5.10;;
55784;SDS011;41709;52.536;5.688;2022-07-25T03:46:23;6.35;;;4.90;;
55784;SDS011;41709;52.536;5.688;2022-07-25T03:48:49;10.30;;;5.00;;
55784;SDS011;41709;52.536;5.688;2022-07-25T03:51:15;5.45;;;4.93;;
55784;SDS011;41709;52.536;5.688;2022-07-25T03:53:40;6.05;;;5.38;;
55784;SDS011;41709;52.536;5.688;2022-07-25T03:56:24;6.15;;;4.70;;
55784;SDS011;41709;52.536;5.688;2022-07-25T03:58:50;8.80;;;5.68;;
55784;SDS011;41709;52.536;5.688;2022-07-25T04:01:16;9.38;;;5.85;;
55784;SDS011;41709;52.536;5.688;2022-07-25T04:03:41;8.50;;;5.85;;
55784;SDS011;41709;52.536;5.688;2022-07-25T04:06:07;6.72;;;5.18;;
55784;SDS011;41709;52.536;5.688;2022-07-25T04:08:32;7.53;;;5.47;;
55784;SDS011;41709;52.536;5.688;2022-07-25T04:10:58;5.93;;;5.35;;
55784;SDS011;41709;52.536;5.688;2022-07-25T04:13:23;8.20;;;5.68;;
55784;SDS011;41709;52.536;5.688;2022-07-25T04:15:49;6.15;;;5.55;;
55784;SDS011;41709;52.536;5.688;2022-07-25T04:18:15;8.18;;;5.57;;
55784;SDS011;41709;52.536;5.688;2022-07-25T04:20:41;7.25;;;5.63;;
55784;SDS011;41709;52.536;5.688;2022-07-25T04:23:06;6.05;;;5.25;;
55784;SDS011;41709;52.536;5.688;2022-07-25T04:25:32;9.82;;;5.57;;
55784;SDS011;41709;52.536;5.688;2022-07-25T04:27:57;6.78;;;6.07;;
55784;SDS011;41709;52.536;5.688;2022-07-25T04:30:23;6.45;;;5.85;;
55784;SDS011;41709;52.536;5.688;2022-07-25T04:32:48;7.82;;;5.68;;
55784;SDS011;41709;52.536;5.688;2022-07-25T04:35:14;7.55;;;5.90;;
55784;SDS011;41709;52.536;5.688;2022-07-25T04:37:39;7.70;;;6.47;;
55784;SDS011;41709;52.536;5.688;2022-07-25T04:40:05;6.50;;;5.72;;
55784;SDS011;41709;52.536;5.688;2022-07-25T04:42:30;8.50;;;5.75;;
55784;SDS011;41709;52.536;5.688;2022-07-25T04:44:56;6.53;;;5.72;;
55784;SDS011;41709;52.536;5.688;2022-07-25T04:47:21;9.57;;;6.22;;
55784;SDS011;41709;52.536;5.688;2022-07-25T04:49:47;8.70;;;6.10;;
55784;SDS011;41709;52.536;5.688;2022-07-25T04:52:13;7.40;;;6.25;;
55784;SDS011;41709;52.536;5.688;2022-07-25T04:54:38;9.63;;;6.55;;
55784;SDS011;41709;52.536;5.688;2022-07-25T04:57:04;8.13;;;6.88;;
55784;SDS011;41709;52.536;5.688;2022-07-25T04:59:29;7.35;;;6.38;;
55784;SDS011;41709;52.536;5.688;2022-07-25T05:01:55;8.68;;;6.65;;
55784;SDS011;41709;52.536;5.688;2022-07-25T05:04:21;7.13;;;6.43;;
55784;SDS011;41709;52.536;5.688;2022-07-25T05:06:46;7.90;;;6.60;;
55784;SDS011;41709;52.536;5.688;2022-07-25T05:09:12;7.57;;;6.78;;
55784;SDS011;41709;52.536;5.688;2022-07-25T05:11:37;8.55;;;7.40;;
55784;SDS011;41709;52.536;5.688;2022-07-25T05:14:03;8.90;;;7.90;;
55784;SDS011;41709;52.536;5.688;2022-07-25T05:16:29;8.90;;;7.78;;
55784;SDS011;41709;52.536;5.688;2022-07-25T05:18:54;9.60;;;7.45;;
55784;SDS011;41709;52.536;5.688;2022-07-25T05:21:20;13.55;;;9.05;;
55784;SDS011;41709;52.536;5.688;2022-07-25T05:23:45;10.15;;;7.72;;
55784;SDS011;41709;52.536;5.688;2022-07-25T05:26:11;18.52;;;8.60;;
55784;SDS011;41709;52.536;5.688;2022-07-25T05:28:36;11.13;;;8.52;;
55784;SDS011;41709;52.536;5.688;2022-07-25T05:31:02;11.20;;;7.72;;
55784;SDS011;41709;52.536;5.688;2022-07-25T05:33:28;8.82;;;8.00;;
55784;SDS011;41709;52.536;5.688;2022-07-25T05:35:53;14.07;;;8.82;;
55784;SDS011;41709;52.536;5.688;2022-07-25T05:38:19;9.77;;;8.77;;
55784;SDS011;41709;52.536;5.688;2022-07-25T05:40:44;11.02;;;8.52;;
55784;SDS011;41709;52.536;5.688;2022-07-25T05:43:10;10.77;;;8.90;;
55784;SDS011;41709;52.536;5.688;2022-07-25T05:45:35;13.73;;;10.60;;
55784;SDS011;41709;52.536;5.688;2022-07-25T05:48:01;11.93;;;10.27;;
55784;SDS011;41709;52.536;5.688;2022-07-25T05:50:27;11.57;;;9.70;;
55784;SDS011;41709;52.536;5.688;2022-07-25T05:52:52;12.73;;;10.52;;
55784;SDS011;41709;52.536;5.688;2022-07-25T05:55:18;10.90;;;9.40;;
55784;SDS011;41709;52.536;5.688;2022-07-25T05:57:43;10.40;;;8.70;;
55784;SDS011;41709;52.536;5.688;2022-07-25T06:00:09;16.58;;;9.40;;
55784;SDS011;41709;52.536;5.688;2022-07-25T06:02:35;11.43;;;10.20;;
55784;SDS011;41709;52.536;5.688;2022-07-25T06:05:01;11.20;;;10.07;;
55784;SDS011;41709;52.536;5.688;2022-07-25T06:07:26;11.13;;;9.52;;
55784;SDS011;41709;52.536;5.688;2022-07-25T06:09:52;12.40;;;9.35;;
55784;SDS011;41709;52.536;5.688;2022-07-25T06:12:17;10.32;;;9.18;;
55784;SDS011;41709;52.536;5.688;2022-07-25T06:14:43;12.63;;;9.00;;
55784;SDS011;41709;52.536;5.688;2022-07-25T06:17:08;11.05;;;9.93;;
55784;SDS011;41709;52.536;5.688;2022-07-25T06:19:34;11.27;;;9.40;;
55784;SDS011;41709;52.536;5.688;2022-07-25T06:21:59;12.73;;;8.82;;
55784;SDS011;41709;52.536;5.688;2022-07-25T06:24:25;13.65;;;9.73;;
55784;SDS011;41709;52.536;5.688;2022-07-25T06:26:50;12.60;;;9.77;;
55784;SDS011;41709;52.536;5.688;2022-07-25T06:29:16;9.68;;;8.68;;
55784;SDS011;41709;52.536;5.688;2022-07-25T06:31:41;8.90;;;7.97;;
55784;SDS011;41709;52.536;5.688;2022-07-25T06:34:07;11.27;;;9.95;;
55784;SDS011;41709;52.536;5.688;2022-07-25T06:36:33;10.82;;;8.77;;
55784;SDS011;41709;52.536;5.688;2022-07-25T06:38:59;9.30;;;8.40;;
55784;SDS011;41709;52.536;5.688;2022-07-25T06:41:25;9.70;;;8.65;;
55784;SDS011;41709;52.536;5.688;2022-07-25T06:43:50;11.55;;;8.27;;
55784;SDS011;41709;52.536;5.688;2022-07-25T06:46:16;8.60;;;6.80;;
55784;SDS011;41709;52.536;5.688;2022-07-25T06:48:41;13.13;;;6.97;;
55784;SDS011;41709;52.536;5.688;2022-07-25T06:51:07;6.75;;;5.72;;
55784;SDS011;41709;52.536;5.688;2022-07-25T06:53:32;6.13;;;5.25;;
55784;SDS011;41709;52.536;5.688;2022-07-25T06:55:58;5.43;;;4.55;;
55784;SDS011;41709;52.536;5.688;2022-07-25T06:58:23;4.50;;;4.10;;
55784;SDS011;41709;52.536;5.688;2022-07-25T07:00:49;6.68;;;4.45;;
55784;SDS011;41709;52.536;5.688;2022-07-25T07:03:14;5.35;;;3.70;;
55784;SDS011;41709;52.536;5.688;2022-07-25T07:05:40;4.90;;;3.70;;
55784;SDS011;41709;52.536;5.688;2022-07-25T07:08:06;3.85;;;3.13;;
55784;SDS011;41709;52.536;5.688;2022-07-25T07:10:31;3.83;;;3.08;;
55784;SDS011;41709;52.536;5.688;2022-07-25T07:13:07;3.90;;;2.70;;
55784;SDS011;41709;52.536;5.688;2022-07-25T07:15:35;3.10;;;2.73;;
55784;SDS011;41709;52.536;5.688;2022-07-25T07:18:01;3.05;;;2.40;;
55784;SDS011;41709;52.536;5.688;2022-07-25T07:20:27;4.45;;;2.45;;
55784;SDS011;41709;52.536;5.688;2022-07-25T07:22:53;3.35;;;2.50;;
55784;SDS011;41709;52.536;5.688;2022-07-25T07:25:19;5.38;;;2.42;;
55784;SDS011;41709;52.536;5.688;2022-07-25T07:27:45;3.90;;;2.42;;
55784;SDS011;41709;52.536;5.688;2022-07-25T07:30:11;2.00;;;1.80;;
55784;SDS011;41709;52.536;5.688;2022-07-25T07:32:39;4.00;;;2.70;;
55784;SDS011;41709;52.536;5.688;2022-07-25T07:35:05;3.90;;;2.25;;
55784;SDS011;41709;52.536;5.688;2022-07-25T07:37:31;3.25;;;2.15;;
55784;SDS011;41709;52.536;5.688;2022-07-25T07:39:56;2.00;;;1.80;;
55784;SDS011;41709;52.536;5.688;2022-07-25T07:42:22;3.55;;;1.75;;
55784;SDS011;41709;52.536;5.688;2022-07-25T07:44:47;2.03;;;1.80;;
55784;SDS011;41709;52.536;5.688;2022-07-25T07:47:13;1.63;;;1.42;;
55784;SDS011;41709;52.536;5.688;2022-07-25T07:49:38;2.40;;;2.03;;
55784;SDS011;41709;52.536;5.688;2022-07-25T07:52:04;4.88;;;1.77;;
55784;SDS011;41709;52.536;5.688;2022-07-25T07:54:30;3.70;;;2.00;;
55784;SDS011;41709;52.536;5.688;2022-07-25T07:57:14;8.93;;;2.92;;
55784;SDS011;41709;52.536;5.688;2022-07-25T07:59:40;2.97;;;2.50;;
55784;SDS011;41709;52.536;5.688;2022-07-25T08:02:05;6.50;;;2.40;;
55784;SDS011;41709;52.536;5.688;2022-07-25T08:04:31;3.42;;;2.13;;
55784;SDS011;41709;52.536;5.688;2022-07-25T08:06:56;5.53;;;2.05;;
55784;SDS011;41709;52.536;5.688;2022-07-25T08:09:22;3.63;;;2.10;;
55784;SDS011;41709;52.536;5.688;2022-07-25T08:11:50;3.30;;;1.73;;
55784;SDS011;41709;52.536;5.688;2022-07-25T08:14:16;2.88;;;2.20;;
55784;SDS011;41709;52.536;5.688;2022-07-25T08:16:41;2.35;;;1.63;;
55784;SDS011;41709;52.536;5.688;2022-07-25T08:19:07;3.17;;;1.48;;
55784;SDS011;41709;52.536;5.688;2022-07-25T08:21:33;2.63;;;1.60;;
55784;SDS011;41709;52.536;5.688;2022-07-25T08:23:58;2.65;;;1.55;;
55784;SDS011;41709;52.536;5.688;2022-07-25T08:26:24;1.90;;;1.25;;
55784;SDS011;41709;52.536;5.688;2022-07-25T08:28:51;1.92;;;1.10;;
55784;SDS011;41709;52.536;5.688;2022-07-25T08:31:17;2.40;;;1.17;;
55784;SDS011;41709;52.536;5.688;2022-07-25T08:33:43;2.33;;;1.48;;
55784;SDS011;41709;52.536;5.688;2022-07-25T08:36:08;3.53;;;1.30;;
55784;SDS011;41709;52.536;5.688;2022-07-25T08:38:35;2.33;;;1.27;;
55784;SDS011;41709;52.536;5.688;2022-07-25T08:41:01;2.22;;;1.05;;
55784;SDS011;41709;52.536;5.688;2022-07-25T08:43:27;1.65;;;1.00;;
55784;SDS011;41709;52.536;5.688;2022-07-25T08:45:56;6.10;;;1.08;;
55784;SDS011;41709;52.536;5.688;2022-07-25T08:48:25;2.20;;;1.00;;
55784;SDS011;41709;52.536;5.688;2022-07-25T08:50:51;3.83;;;1.25;;
55784;SDS011;41709;52.536;5.688;2022-07-25T08:53:18;2.40;;;1.20;;
55784;SDS011;41709;52.536;5.688;2022-07-25T08:55:45;3.42;;;1.13;;
55784;SDS011;41709;52.536;5.688;2022-07-25T08:58:12;6.25;;;0.90;;
55784;SDS011;41709;52.536;5.688;2022-07-25T09:00:39;2.95;;;1.10;;
55784;SDS011;41709;52.536;5.688;2022-07-25T09:03:05;3.00;;;1.17;;
55784;SDS011;41709;52.536;5.688;2022-07-25T09:05:31;2.40;;;0.90;;
55784;SDS011;41709;52.536;5.688;2022-07-25T09:08:04;3.25;;;1.15;;
55784;SDS011;41709;52.536;5.688;2022-07-25T09:10:47;2.60;;;1.17;;
55784;SDS011;41709;52.536;5.688;2022-07-25T09:13:15;2.60;;;1.05;;
55784;SDS011;41709;52.536;5.688;2022-07-25T09:15:45;3.55;;;1.02;;
55784;SDS011;41709;52.536;5.688;2022-07-25T09:20:51;3.33;;;1.25;;
55784;SDS011;41709;52.536;5.688;2022-07-25T09:23:28;6.93;;;1.30;;
55784;SDS011;41709;52.536;5.688;2022-07-25T09:26:02;8.37;;;1.30;;
55784;SDS011;41709;52.536;5.688;2022-07-25T09:28:31;4.55;;;1.05;;
55784;SDS011;41709;52.536;5.688;2022-07-25T09:31:04;5.45;;;1.27;;
55784;SDS011;41709;52.536;5.688;2022-07-25T09:33:30;4.43;;;1.35;;
55784;SDS011;41709;52.536;5.688;2022-07-25T09:35:56;3.78;;;1.08;;
55784;SDS011;41709;52.536;5.688;2022-07-25T09:38:22;3.60;;;1.08;;
55784;SDS011;41709;52.536;5.688;2022-07-25T09:40:52;5.07;;;1.50;;
55784;SDS011;41709;52.536;5.688;2022-07-25T09:43:23;3.00;;;1.50;;
55784;SDS011;41709;52.536;5.688;2022-07-25T09:46:03;6.05;;;1.55;;
55784;SDS011;41709;52.536;5.688;2022-07-25T09:48:30;5.43;;;1.30;;
55784;SDS011;41709;52.536;5.688;2022-07-25T09:50:56;4.07;;;1.88;;
55784;SDS011;41709;52.536;5.688;2022-07-25T09:53:22;7.30;;;1.70;;
55784;SDS011;41709;52.536;5.688;2022-07-25T09:55:48;8.00;;;2.20;;
55784;SDS011;41709;52.536;5.688;2022-07-25T09:58:14;5.30;;;1.50;;
55784;SDS011;41709;52.536;5.688;2022-07-25T10:00:39;7.80;;;1.25;;
55784;SDS011;41709;52.536;5.688;2022-07-25T10:08:46;5.00;;;1.30;;
55784;SDS011;41709;52.536;5.688;2022-07-25T10:13:49;6.15;;;1.40;;
55784;SDS011;41709;52.536;5.688;2022-07-25T10:16:20;4.03;;;1.40;;
55784;SDS011;41709;52.536;5.688;2022-07-25T10:18:54;6.00;;;1.50;;
55784;SDS011;41709;52.536;5.688;2022-07-25T10:21:22;5.28;;;1.30;;
55784;SDS011;41709;52.536;5.688;2022-07-25T10:23:59;4.07;;;1.52;;
55784;SDS011;41709;52.536;5.688;2022-07-25T10:26:35;7.53;;;1.25;;
55784;SDS011;41709;52.536;5.688;2022-07-25T10:29:15;4.57;;;1.45;;
55784;SDS011;41709;52.536;5.688;2022-07-25T10:31:41;3.35;;;1.30;;
55784;SDS011;41709;52.536;5.688;2022-07-25T10:34:10;4.97;;;1.67;;
55784;SDS011;41709;52.536;5.688;2022-07-25T10:39:14;4.90;;;1.30;;
55784;SDS011;41709;52.536;5.688;2022-07-25T10:41:42;5.60;;;1.13;;
55784;SDS011;41709;52.536;5.688;2022-07-25T10:44:13;3.08;;;1.20;;
55784;SDS011;41709;52.536;5.688;2022-07-25T10:46:40;3.30;;;1.30;;
55784;SDS011;41709;52.536;5.688;2022-07-25T10:49:19;6.15;;;1.63;;
55784;SDS011;41709;52.536;5.688;2022-07-25T10:51:59;5.70;;;1.60;;
55784;SDS011;41709;52.536;5.688;2022-07-25T10:54:31;6.38;;;1.40;;
55784;SDS011;41709;52.536;5.688;2022-07-25T10:57:16;8.65;;;1.30;;
55784;SDS011;41709;52.536;5.688;2022-07-25T10:59:41;5.13;;;1.10;;
55784;SDS011;41709;52.536;5.688;2022-07-25T11:02:07;6.05;;;1.40;;
55784;SDS011;41709;52.536;5.688;2022-07-25T11:04:40;4.00;;;0.98;;
55784;SDS011;41709;52.536;5.688;2022-07-25T11:07:09;4.13;;;0.90;;
55784;SDS011;41709;52.536;5.688;2022-07-25T11:09:36;5.00;;;0.90;;
55784;SDS011;41709;52.536;5.688;2022-07-25T11:12:03;3.60;;;1.05;;
55784;SDS011;41709;52.536;5.688;2022-07-25T11:14:33;3.00;;;0.95;;
55784;SDS011;41709;52.536;5.688;2022-07-25T11:17:21;4.07;;;1.00;;
55784;SDS011;41709;52.536;5.688;2022-07-25T11:22:25;5.68;;;1.42;;
55784;SDS011;41709;52.536;5.688;2022-07-25T11:24:51;6.10;;;1.20;;
55784;SDS011;41709;52.536;5.688;2022-07-25T11:27:23;3.90;;;0.98;;
55784;SDS011;41709;52.536;5.688;2022-07-25T11:29:51;4.10;;;1.35;;
55784;SDS011;41709;52.536;5.688;2022-07-25T11:32:17;6.45;;;1.90;;
55784;SDS011;41709;52.536;5.688;2022-07-25T11:34:44;3.40;;;1.38;;
55784;SDS011;41709;52.536;5.688;2022-07-25T11:37:12;6.20;;;1.50;;
55784;SDS011;41709;52.536;5.688;2022-07-25T11:39:39;3.83;;;0.80;;
55784;SDS011;41709;52.536;5.688;2022-07-25T11:42:08;5.18;;;1.52;;
55784;SDS011;41709;52.536;5.688;2022-07-25T11:44:45;5.30;;;1.58;;
55784;SDS011;41709;52.536;5.688;2022-07-25T11:47:23;9.40;;;1.70;;
55784;SDS011;41709;52.536;5.688;2022-07-25T11:49:52;7.93;;;1.98;;
55784;SDS011;41709;52.536;5.688;2022-07-25T11:54:53;3.95;;;1.60;;
55784;SDS011;41709;52.536;5.688;2022-07-25T11:57:21;5.15;;;1.63;;
55784;SDS011;41709;52.536;5.688;2022-07-25T11:59:54;4.78;;;1.52;;
55784;SDS011;41709;52.536;5.688;2022-07-25T12:02:21;4.68;;;1.65;;
55784;SDS011;41709;52.536;5.688;2022-07-25T12:04:55;4.32;;;1.67;;
55784;SDS011;41709;52.536;5.688;2022-07-25T12:07:33;6.00;;;1.83;;
55784;SDS011;41709;52.536;5.688;2022-07-25T12:10:02;6.50;;;2.17;;
55784;SDS011;41709;52.536;5.688;2022-07-25T12:12:28;8.45;;;2.80;;
55784;SDS011;41709;52.536;5.688;2022-07-25T12:15:04;12.65;;;2.10;;
55784;SDS011;41709;52.536;5.688;2022-07-25T12:17:30;6.43;;;2.22;;
55784;SDS011;41709;52.536;5.688;2022-07-25T12:19:55;5.00;;;2.13;;
55784;SDS011;41709;52.536;5.688;2022-07-25T12:22:21;6.55;;;1.92;;
55784;SDS011;41709;52.536;5.688;2022-07-25T12:24:46;6.20;;;1.98;;
55784;SDS011;41709;52.536;5.688;2022-07-25T12:27:12;7.93;;;1.75;;
55784;SDS011;41709;52.536;5.688;2022-07-25T12:29:38;7.53;;;2.30;;
55784;SDS011;41709;52.536;5.688;2022-07-25T12:32:03;6.70;;;1.67;;
55784;SDS011;41709;52.536;5.688;2022-07-25T12:34:29;6.05;;;2.00;;
55784;SDS011;41709;52.536;5.688;2022-07-25T12:36:54;10.02;;;2.25;;
55784;SDS011;41709;52.536;5.688;2022-07-25T12:39:20;6.65;;;1.60;;
55784;SDS011;41709;52.536;5.688;2022-07-25T12:41:45;5.63;;;1.38;;
55784;SDS011;41709;52.536;5.688;2022-07-25T12:44:11;6.35;;;1.70;;
55784;SDS011;41709;52.536;5.688;2022-07-25T12:46:37;4.18;;;1.40;;
55784;SDS011;41709;52.536;5.688;2022-07-25T12:49:05;8.63;;;2.10;;
55784;SDS011;41709;52.536;5.688;2022-07-25T12:51:30;6.88;;;2.20;;
55784;SDS011;41709;52.536;5.688;2022-07-25T12:53:56;9.98;;;1.65;;
55784;SDS011;41709;52.536;5.688;2022-07-25T12:56:21;6.55;;;2.00;;
55784;SDS011;41709;52.536;5.688;2022-07-25T12:58:47;5.75;;;1.63;;
55784;SDS011;41709;52.536;5.688;2022-07-25T13:01:14;4.57;;;2.33;;
55784;SDS011;41709;52.536;5.688;2022-07-25T13:03:40;9.52;;;2.63;;
55784;SDS011;41709;52.536;5.688;2022-07-25T13:06:05;9.90;;;2.58;;
55784;SDS011;41709;52.536;5.688;2022-07-25T13:08:31;8.77;;;1.70;;
55784;SDS011;41709;52.536;5.688;2022-07-25T13:10:57;12.00;;;2.33;;
55784;SDS011;41709;52.536;5.688;2022-07-25T13:13:22;5.82;;;1.95;;
55784;SDS011;41709;52.536;5.688;2022-07-25T13:15:48;6.35;;;2.50;;
55784;SDS011;41709;52.536;5.688;2022-07-25T13:18:14;4.90;;;1.88;;
55784;SDS011;41709;52.536;5.688;2022-07-25T13:20:40;5.57;;;1.75;;
55784;SDS011;41709;52.536;5.688;2022-07-25T13:23:05;13.27;;;2.22;;
55784;SDS011;41709;52.536;5.688;2022-07-25T13:25:31;9.00;;;2.10;;
55784;SDS011;41709;52.536;5.688;2022-07-25T13:27:58;7.38;;;1.92;;
55784;SDS011;41709;52.536;5.688;2022-07-25T13:30:23;8.60;;;2.40;;
55784;SDS011;41709;52.536;5.688;2022-07-25T13:32:49;3.72;;;1.70;;
55784;SDS011;41709;52.536;5.688;2022-07-25T13:35:14;5.40;;;2.13;;
55784;SDS011;41709;52.536;5.688;2022-07-25T13:37:40;7.72;;;2.50;;
55784;SDS011;41709;52.536;5.688;2022-07-25T13:40:05;5.82;;;1.73;;
55784;SDS011;41709;52.536;5.688;2022-07-25T13:42:31;7.75;;;1.67;;
55784;SDS011;41709;52.536;5.688;2022-07-25T13:44:57;7.28;;;1.75;;
55784;SDS011;41709;52.536;5.688;2022-07-25T13:47:23;6.63;;;1.83;;
55784;SDS011;41709;52.536;5.688;2022-07-25T13:49:48;6.88;;;1.65;;
55784;SDS011;41709;52.536;5.688;2022-07-25T13:52:14;7.07;;;1.33;;
55784;SDS011;41709;52.536;5.688;2022-07-25T13:54:39;5.80;;;1.75;;
55784;SDS011;41709;52.536;5.688;2022-07-25T13:57:05;4.55;;;1.65;;
55784;SDS011;41709;52.536;5.688;2022-07-25T13:59:31;10.70;;;2.53;;
55784;SDS011;41709;52.536;5.688;2022-07-25T14:01:56;10.63;;;2.65;;
55784;SDS011;41709;52.536;5.688;2022-07-25T14:04:22;8.05;;;1.88;;
55784;SDS011;41709;52.536;5.688;2022-07-25T14:06:47;9.57;;;2.05;;
55784;SDS011;41709;52.536;5.688;2022-07-25T14:09:16;10.65;;;1.98;;
55784;SDS011;41709;52.536;5.688;2022-07-25T14:11:43;15.73;;;1.75;;
55784;SDS011;41709;52.536;5.688;2022-07-25T14:14:08;6.50;;;2.03;;
55784;SDS011;41709;52.536;5.688;2022-07-25T14:16:34;11.65;;;2.38;;
55784;SDS011;41709;52.536;5.688;2022-07-25T14:19:00;8.55;;;2.53;;
55784;SDS011;41709;52.536;5.688;2022-07-25T14:21:26;9.10;;;2.00;;
55784;SDS011;41709;52.536;5.688;2022-07-25T14:23:51;9.80;;;2.60;;
55784;SDS011;41709;52.536;5.688;2022-07-25T14:26:17;5.97;;;1.60;;
55784;SDS011;41709;52.536;5.688;2022-07-25T14:28:43;7.65;;;2.15;;
55784;SDS011;41709;52.536;5.688;2022-07-25T14:31:08;10.85;;;2.83;;
55784;SDS011;41709;52.536;5.688;2022-07-25T14:33:35;8.85;;;2.42;;
55784;SDS011;41709;52.536;5.688;2022-07-25T14:36:03;4.97;;;1.88;;
55784;SDS011;41709;52.536;5.688;2022-07-25T14:38:31;10.88;;;2.13;;
55784;SDS011;41709;52.536;5.688;2022-07-25T14:40:56;12.82;;;2.05;;
55784;SDS011;41709;52.536;5.688;2022-07-25T14:43:22;6.50;;;1.20;;
55784;SDS011;41709;52.536;5.688;2022-07-25T14:45:47;4.53;;;1.30;;
55784;SDS011;41709;52.536;5.688;2022-07-25T14:48:13;4.63;;;0.93;;
55784;SDS011;41709;52.536;5.688;2022-07-25T14:50:38;6.32;;;1.65;;
55784;SDS011;41709;52.536;5.688;2022-07-25T14:53:04;8.48;;;1.75;;
55784;SDS011;41709;52.536;5.688;2022-07-25T14:55:30;5.55;;;1.30;;
55784;SDS011;41709;52.536;5.688;2022-07-25T14:57:55;5.13;;;1.60;;
55784;SDS011;41709;52.536;5.688;2022-07-25T15:00:26;4.03;;;1.30;;
55784;SDS011;41709;52.536;5.688;2022-07-25T15:02:52;5.38;;;1.10;;